Time;durP1;ratioP1;P1;durP2;ratioP2;P2;SDS_P1;SDS_P2;PMS_P1;PMS_P2;Temp;Humidity;BMP_temperature;BMP_pressure;BME280_temperature;BME280_humidity;BME280_pressure;Samples;Min_cycle;Max_cycle;Signal;HPM_P1;HPM_P2
2022/08/17 00:01:23;;;;;;;1.88;1.77;;;;;;;;;;5055867;28;20248;-83
2022/08/17 00:03:53;;;;;;;2.90;2.10;;;;;;;;;;5055897;28;20642;-82
2022/08/17 00:06:27;;;;;;;2.35;2.15;;;;;;;;;;5056007;28;20208;-83
2022/08/17 00:08:56;;;;;;;1.73;1.63;;;;;;;;;;5055562;28;20221;-82
2022/08/17 00:11:27;;;;;;;2.00;1.90;;;;;;;;;;5056009;28;20269;-82
2022/08/17 00:13:57;;;;;;;2.88;2.08;;;;;;;;;;5056065;28;20732;-82
2022/08/17 00:16:30;;;;;;;2.15;1.98;;;;;;;;;;5056265;28;20288;-83
2022/08/17 00:18:58;;;;;;;1.92;1.83;;;;;;;;;;5055591;28;20222;-82
2022/08/17 00:21:27;;;;;;;2.45;2.25;;;;;;;;;;5055716;28;20686;-82
2022/08/17 00:23:55;;;;;;;2.78;2.28;;;;;;;;;;5055618;28;20699;-83
2022/08/17 00:26:28;;;;;;;1.90;1.80;;;;;;;;;;5055138;28;20296;-82
2022/08/17 00:28:56;;;;;;;2.20;2.03;;;;;;;;;;5055576;28;20272;-82
2022/08/17 00:31:24;;;;;;;2.75;2.55;;;;;;;;;;5055796;28;20732;-82
2022/08/17 00:33:52;;;;;;;2.13;2.03;;;;;;;;;;5055567;28;20229;-83
2022/08/17 00:36:20;;;;;;;2.08;1.95;;;;;;;;;;5055794;28;20208;-83
2022/08/17 00:38:49;;;;;;;2.28;2.17;;;;;;;;;;5055211;28;20232;-83
2022/08/17 00:41:19;;;;;;;2.15;2.05;;;;;;;;;;5055318;28;20212;-82
2022/08/17 00:43:50;;;;;;;2.25;2.15;;;;;;;;;;5056008;28;20209;-82
2022/08/17 00:46:22;;;;;;;2.33;2.15;;;;;;;;;;5055133;28;20296;-83
2022/08/17 00:48:51;;;;;;;2.47;2.28;;;;;;;;;;5056536;28;20222;-83
2022/08/17 00:51:33;;;;;;;2.22;2.13;;;;;;;;;;5056208;28;20745;-83
2022/08/17 00:54:07;;;;;;;2.03;1.83;;;;;;;;;;5055761;28;20222;-82
2022/08/17 00:56:38;;;;;;;1.85;1.75;;;;;;;;;;5055690;28;20208;-83
2022/08/17 00:59:06;;;;;;;2.03;1.90;;;;;;;;;;5056562;28;20315;-83
2022/08/17 01:01:34;;;;;;;1.80;1.70;;;;;;;;;;5055681;28;20289;-82
2022/08/17 01:04:04;;;;;;;2.75;1.67;;;;;;;;;;5054972;28;20280;-83
2022/08/17 01:06:32;;;;;;;2.25;2.05;;;;;;;;;;5055443;28;20208;-83
2022/08/17 01:09:02;;;;;;;2.20;2.10;;;;;;;;;;5055984;28;20304;-83
2022/08/17 01:11:31;;;;;;;3.38;2.25;;;;;;;;;;5055879;28;20289;-83
2022/08/17 01:13:59;;;;;;;2.40;2.20;;;;;;;;;;5055244;28;20559;-83
2022/08/17 01:16:30;;;;;;;2.85;2.65;;;;;;;;;;5054597;28;20651;-83
2022/08/17 01:19:03;;;;;;;2.47;2.33;;;;;;;;;;5054820;28;20225;-84
2022/08/17 01:21:36;;;;;;;2.53;2.33;;;;;;;;;;5055627;28;20289;-83
2022/08/17 01:24:06;;;;;;;2.17;2.08;;;;;;;;;;5055628;28;20306;-83
2022/08/17 01:26:34;;;;;;;2.47;2.28;;;;;;;;;;5055232;28;20901;-83
2022/08/17 01:29:04;;;;;;;2.50;2.38;;;;;;;;;;5055188;28;20275;-83
2022/08/17 01:31:37;;;;;;;2.42;2.22;;;;;;;;;;5055548;28;20198;-83
2022/08/17 01:34:10;;;;;;;2.38;2.28;;;;;;;;;;5055208;28;20792;-83
2022/08/17 01:36:40;;;;;;;2.30;2.20;;;;;;;;;;5054632;28;20208;-83
2022/08/17 01:39:16;;;;;;;1.73;1.63;;;;;;;;;;5054564;28;20806;-82
2022/08/17 01:41:44;;;;;;;2.00;1.80;;;;;;;;;;5054722;28;20272;-83
2022/08/17 01:44:12;;;;;;;2.10;2.00;;;;;;;;;;5054540;28;20198;-83
2022/08/17 01:46:40;;;;;;;3.05;2.75;;;;;;;;;;5054622;28;20296;-83
2022/08/17 01:49:09;;;;;;;1.92;1.83;;;;;;;;;;5054239;28;20320;-83
2022/08/17 01:51:37;;;;;;;2.35;2.25;;;;;;;;;;5054579;28;20288;-83
2022/08/17 01:54:10;;;;;;;3.17;2.40;;;;;;;;;;5053738;28;20320;-83
2022/08/17 01:56:43;;;;;;;2.60;2.40;;;;;;;;;;5053482;28;20206;-82
2022/08/17 01:59:10;;;;;;;2.47;2.28;;;;;;;;;;5054737;28;20221;-83
2022/08/17 02:01:38;;;;;;;2.30;2.10;;;;;;;;;;5053842;28;20384;-82
2022/08/17 02:04:08;;;;;;;2.50;2.30;;;;;;;;;;5054096;28;20198;-83
2022/08/17 02:06:42;;;;;;;2.60;2.40;;;;;;;;;;5053683;28;20209;-82
2022/08/17 02:09:12;;;;;;;2.33;2.13;;;;;;;;;;5053487;28;20225;-83
2022/08/17 02:11:40;;;;;;;2.38;2.28;;;;;;;;;;5053731;28;20289;-83
2022/08/17 02:14:09;;;;;;;3.25;2.60;;;;;;;;;;5053777;28;20228;-83
2022/08/17 02:16:40;;;;;;;1.90;1.80;;;;;;;;;;5053873;28;20292;-83
2022/08/17 02:19:11;;;;;;;2.60;2.40;;;;;;;;;;5053704;28;20573;-82
2022/08/17 02:21:40;;;;;;;2.25;2.15;;;;;;;;;;5052974;28;20296;-82
2022/08/17 02:24:12;;;;;;;1.95;1.85;;;;;;;;;;5053247;28;20280;-83
2022/08/17 02:26:39;;;;;;;2.25;2.15;;;;;;;;;;5053612;28;20306;-83
2022/08/17 02:29:07;;;;;;;1.95;1.85;;;;;;;;;;5053438;28;20308;-84
2022/08/17 02:31:35;;;;;;;2.00;1.90;;;;;;;;;;5053683;28;20301;-83
2022/08/17 02:34:02;;;;;;;2.28;2.17;;;;;;;;;;5053347;28;20255;-82
2022/08/17 02:36:30;;;;;;;2.10;1.90;;;;;;;;;;5052836;28;20202;-82
2022/08/17 02:38:58;;;;;;;1.92;1.83;;;;;;;;;;5053058;28;20228;-82
2022/08/17 02:41:27;;;;;;;2.05;1.95;;;;;;;;;;5053247;28;20209;-82
2022/08/17 02:43:55;;;;;;;2.10;2.00;;;;;;;;;;5052931;28;20638;-82
2022/08/17 02:46:22;;;;;;;1.90;1.80;;;;;;;;;;5052802;28;20232;-83
2022/08/17 02:48:50;;;;;;;1.70;1.60;;;;;;;;;;5052466;28;20304;-83
2022/08/17 02:51:18;;;;;;;1.85;1.75;;;;;;;;;;5052937;28;20659;-83
2022/08/17 02:53:45;;;;;;;2.05;1.88;;;;;;;;;;5052728;28;20226;-82
2022/08/17 02:56:13;;;;;;;2.20;2.10;;;;;;;;;;5052802;28;20284;-84
2022/08/17 02:58:42;;;;;;;1.92;1.83;;;;;;;;;;5053063;28;20304;-83
2022/08/17 03:01:11;;;;;;;1.80;1.70;;;;;;;;;;5052989;28;20284;-83
2022/08/17 03:03:39;;;;;;;2.25;2.10;;;;;;;;;;5053279;28;20198;-83
2022/08/17 03:06:08;;;;;;;2.08;1.95;;;;;;;;;;5052874;28;20737;-83
2022/08/17 03:08:37;;;;;;;2.28;2.17;;;;;;;;;;5051920;28;20597;-83
2022/08/17 03:11:04;;;;;;;2.33;2.22;;;;;;;;;;5052696;28;20553;-83
2022/08/17 03:13:32;;;;;;;2.10;2.00;;;;;;;;;;5052567;28;20288;-83
2022/08/17 03:16:01;;;;;;;2.00;1.90;;;;;;;;;;5052834;28;20293;-83
2022/08/17 03:18:28;;;;;;;2.33;2.13;;;;;;;;;;5052869;28;20789;-84
2022/08/17 03:20:59;;;;;;;2.78;2.58;;;;;;;;;;5052668;28;20202;-83
2022/08/17 03:23:28;;;;;;;1.90;1.80;;;;;;;;;;5077658;22;20679;-84
2022/08/17 03:25:55;;;;;;;3.22;2.97;;;;;;;;;;5055697;28;20578;-85
2022/08/17 03:28:24;;;;;;;2.42;2.13;;;;;;;;;;5055220;28;20233;-85
2022/08/17 03:30:52;;;;;;;2.67;2.50;;;;;;;;;;5055876;28;20293;-85
2022/08/17 03:33:22;;;;;;;2.13;2.03;;;;;;;;;;5055747;28;20272;-85
2022/08/17 03:35:49;;;;;;;2.28;2.17;;;;;;;;;;5055441;28;20324;-85
2022/08/17 03:38:18;;;;;;;3.45;2.58;;;;;;;;;;5055304;28;20622;-83
2022/08/17 03:40:47;;;;;;;2.20;2.10;;;;;;;;;;5055436;28;20613;-83
2022/08/17 03:43:16;;;;;;;2.40;2.20;;;;;;;;;;5055042;28;20638;-82
2022/08/17 03:57:04;;;;;;;3.40;2.38;;;;;;;;;;5054867;28;20225;-84
2022/08/17 03:59:32;;;;;;;2.58;2.47;;;;;;;;;;5054858;28;20654;-83
2022/08/17 04:02:03;;;;;;;2.28;2.05;;;;;;;;;;5054501;28;20686;-83
2022/08/17 04:04:33;;;;;;;1.75;1.65;;;;;;;;;;5054896;28;20245;-85
2022/08/17 04:07:01;;;;;;;1.88;1.77;;;;;;;;;;5055143;28;20308;-85
2022/08/17 04:09:28;;;;;;;1.75;1.65;;;;;;;;;;5055315;28;20276;-85
2022/08/17 04:11:56;;;;;;;2.25;2.08;;;;;;;;;;5054892;28;20237;-83
2022/08/17 04:14:24;;;;;;;1.80;1.70;;;;;;;;;;5055649;28;20226;-85
2022/08/17 04:16:51;;;;;;;2.55;2.35;;;;;;;;;;5056207;28;20229;-84
2022/08/17 04:19:19;;;;;;;1.80;1.70;;;;;;;;;;5056031;28;20229;-83
2022/08/17 04:21:48;;;;;;;2.00;1.90;;;;;;;;;;5058051;28;20206;-85
2022/08/17 04:24:15;;;;;;;2.45;1.80;;;;;;;;;;5058961;28;20265;-85
2022/08/17 04:26:43;;;;;;;1.85;1.75;;;;;;;;;;5059463;28;20632;-83
2022/08/17 04:29:10;;;;;;;1.92;1.83;;;;;;;;;;5058555;28;20618;-83
2022/08/17 04:31:38;;;;;;;2.15;1.88;;;;;;;;;;5059340;28;20205;-84
2022/08/17 04:34:05;;;;;;;1.90;1.60;;;;;;;;;;5059066;28;20227;-83
2022/08/17 04:36:34;;;;;;;1.75;1.65;;;;;;;;;;5059596;28;20218;-84
2022/08/17 04:39:03;;;;;;;1.65;1.55;;;;;;;;;;5059689;28;20206;-84
2022/08/17 04:44:16;;;;;;;1.50;1.50;;;;;;;;;;5060079;28;20185;-84
2022/08/17 04:46:43;;;;;;;1.73;1.63;;;;;;;;;;5059286;28;20312;-82
2022/08/17 04:49:12;;;;;;;2.08;1.52;;;;;;;;;;5059093;28;20236;-83
2022/08/17 04:51:43;;;;;;;1.90;1.80;;;;;;;;;;5058822;28;20678;-82
2022/08/17 04:54:15;;;;;;;1.88;1.77;;;;;;;;;;5058855;28;20682;-83
2022/08/17 04:56:43;;;;;;;1.83;1.73;;;;;;;;;;5058396;28;20261;-83
2022/08/17 04:59:14;;;;;;;1.95;1.75;;;;;;;;;;5059098;28;20212;-84
2022/08/17 05:01:44;;;;;;;1.80;1.70;;;;;;;;;;5059133;28;20235;-82
2022/08/17 05:04:16;;;;;;;1.50;1.40;;;;;;;;;;5059393;28;20720;-85
2022/08/17 05:06:44;;;;;;;1.65;1.55;;;;;;;;;;5059089;28;20217;-84
2022/08/17 05:09:14;;;;;;;1.80;1.70;;;;;;;;;;5059521;28;20285;-82
2022/08/17 05:11:42;;;;;;;2.38;2.20;;;;;;;;;;5059054;28;20251;-82
2022/08/17 05:14:09;;;;;;;2.97;2.35;;;;;;;;;;5058003;28;20221;-84
2022/08/17 05:16:37;;;;;;;2.13;2.03;;;;;;;;;;5057908;28;20726;-83
2022/08/17 05:19:05;;;;;;;2.50;2.30;;;;;;;;;;5058579;28;20200;-83
2022/08/17 05:21:32;;;;;;;2.80;2.60;;;;;;;;;;5058089;28;20288;-83
2022/08/17 05:24:00;;;;;;;2.50;2.33;;;;;;;;;;5058299;28;20817;-84
2022/08/17 05:26:29;;;;;;;3.03;2.80;;;;;;;;;;5057815;28;20224;-84
2022/08/17 05:28:57;;;;;;;2.47;2.28;;;;;;;;;;5057075;28;20225;-84
2022/08/17 05:31:25;;;;;;;2.80;2.60;;;;;;;;;;5055955;28;20285;-84
2022/08/17 05:33:53;;;;;;;2.58;2.38;;;;;;;;;;5056800;28;20674;-83
2022/08/17 05:36:20;;;;;;;2.60;2.40;;;;;;;;;;5057784;28;20708;-84
2022/08/17 05:38:49;;;;;;;3.53;3.05;;;;;;;;;;5057309;28;20229;-84
2022/08/17 05:41:17;;;;;;;3.20;3.00;;;;;;;;;;5057558;28;20198;-83
2022/08/17 05:43:46;;;;;;;3.03;2.83;;;;;;;;;;5057093;28;20293;-84
2022/08/17 05:46:19;;;;;;;3.05;2.83;;;;;;;;;;5057140;28;20743;-83
2022/08/17 05:48:50;;;;;;;3.33;3.13;;;;;;;;;;5057317;28;20276;-85
2022/08/17 05:51:55;;;;;;;2.75;2.55;;;;;;;;;;5056993;28;20575;-83
2022/08/17 05:54:38;;;;;;;2.55;2.42;;;;;;;;;;5025240;28;20240;-84
2022/08/17 05:57:28;;;;;;;3.92;3.10;;;;;;;;;;5057210;28;20225;-84
2022/08/17 06:00:07;;;;;;;3.10;2.90;;;;;;;;;;5057287;28;20182;-84
2022/08/17 06:02:43;;;;;;;3.70;3.33;;;;;;;;;;5057555;28;20186;-84
2022/08/17 06:05:21;;;;;;;2.67;2.47;;;;;;;;;;5057080;28;20237;-84
2022/08/17 06:07:53;;;;;;;2.50;2.40;;;;;;;;;;5057225;28;20188;-83
2022/08/17 06:10:28;;;;;;;3.13;2.83;;;;;;;;;;5057220;28;20249;-84
2022/08/17 06:13:05;;;;;;;4.32;3.92;;;;;;;;;;5058280;28;20209;-83
2022/08/17 06:15:55;;;;;;;3.50;3.20;;;;;;;;;;5056977;28;20257;-83
2022/08/17 06:18:26;;;;;;;4.75;3.40;;;;;;;;;;5056873;28;20196;-82
2022/08/17 06:20:56;;;;;;;3.35;3.15;;;;;;;;;;5057196;28;20197;-83
2022/08/17 06:23:30;;;;;;;2.92;2.72;;;;;;;;;;5055979;28;20837;-81
2022/08/17 06:26:02;;;;;;;3.22;2.70;;;;;;;;;;5055567;28;20651;-81
2022/08/17 06:28:37;;;;;;;2.83;2.63;;;;;;;;;;5055397;28;20190;-81
2022/08/17 06:31:11;;;;;;;3.78;3.22;;;;;;;;;;5055335;28;20597;-81
2022/08/17 06:33:39;;;;;;;4.53;3.63;;;;;;;;;;5055580;28;20208;-81
2022/08/17 06:36:23;;;;;;;3.35;3.05;;;;;;;;;;5054743;28;20263;-81
2022/08/17 06:39:04;;;;;;;3.03;2.78;;;;;;;;;;5055720;28;20189;-81
2022/08/17 06:41:41;;;;;;;3.72;3.42;;;;;;;;;;5055400;28;20182;-81
2022/08/17 06:44:15;;;;;;;4.70;4.30;;;;;;;;;;5054859;28;20232;-81
2022/08/17 06:46:48;;;;;;;4.30;3.72;;;;;;;;;;5054756;28;20371;-81
2022/08/17 06:49:23;;;;;;;3.30;3.10;;;;;;;;;;5054258;28;20236;-81
2022/08/17 06:51:56;;;;;;;3.50;3.30;;;;;;;;;;5054470;28;20273;-81
2022/08/17 06:54:32;;;;;;;3.20;3.00;;;;;;;;;;5054441;28;20190;-81
2022/08/17 06:57:06;;;;;;;3.60;2.92;;;;;;;;;;5054034;28;20324;-81
2022/08/17 06:59:47;;;;;;;3.47;3.17;;;;;;;;;;5054765;28;20221;-82
2022/08/17 07:02:29;;;;;;;3.17;2.97;;;;;;;;;;5054523;28;20280;-81
2022/08/17 07:04:56;;;;;;;4.15;3.80;;;;;;;;;;5053894;28;20182;-81
2022/08/17 07:10:09;;;;;;;3.83;3.33;;;;;;;;;;5053761;28;20188;-81
2022/08/17 07:12:40;;;;;;;3.88;3.58;;;;;;;;;;5054286;28;20289;-81
2022/08/17 07:15:13;;;;;;;3.92;3.50;;;;;;;;;;5054654;28;20640;-81
2022/08/17 07:17:45;;;;;;;3.38;3.10;;;;;;;;;;5054332;28;20289;-81
2022/08/17 07:20:19;;;;;;;3.55;3.25;;;;;;;;;;5054453;28;20190;-82
2022/08/17 07:22:55;;;;;;;3.13;2.92;;;;;;;;;;5054318;28;20560;-82
2022/08/17 07:25:23;;;;;;;5.22;4.00;;;;;;;;;;5053953;28;20308;-82
2022/08/17 07:27:53;;;;;;;4.50;4.03;;;;;;;;;;5054520;28;20228;-81
2022/08/17 07:30:24;;;;;;;3.55;3.15;;;;;;;;;;5053799;28;20264;-82
2022/08/17 07:32:57;;;;;;;3.65;3.35;;;;;;;;;;5054225;28;20272;-81
2022/08/17 07:35:38;;;;;;;2.85;2.65;;;;;;;;;;5054291;28;20225;-82
2022/08/17 07:38:13;;;;;;;2.85;2.65;;;;;;;;;;5054317;28;20575;-81
2022/08/17 07:40:42;;;;;;;3.35;3.13;;;;;;;;;;5053956;28;20189;-81
2022/08/17 07:43:23;;;;;;;3.58;3.33;;;;;;;;;;5054042;28;20204;-81
2022/08/17 07:49:35;;;;;;;3.42;3.20;;;;;;;;;;5052120;28;20227;-81
2022/08/17 07:52:07;;;;;;;3.95;3.55;;;;;;;;;;5058789;28;20214;-81
2022/08/17 07:54:38;;;;;;;2.92;2.70;;;;;;;;;;5057821;28;20265;-81
2022/08/17 07:57:39;;;;;;;2.75;2.55;;;;;;;;;;5062100;28;20316;-81
2022/08/17 08:00:18;;;;;;;3.72;3.50;;;;;;;;;;5061856;28;20265;-81
2022/08/17 08:02:59;;;;;;;4.25;3.95;;;;;;;;;;5061877;28;20749;-81
2022/08/17 08:05:30;;;;;;;3.30;3.10;;;;;;;;;;5051381;28;20230;-81
2022/08/17 08:08:00;;;;;;;4.05;3.75;;;;;;;;;;5043673;28;20190;-79
2022/08/17 08:10:32;;;;;;;4.32;4.03;;;;;;;;;;5043909;28;20552;-79
2022/08/17 08:13:09;;;;;;;3.70;3.40;;;;;;;;;;5044681;28;20178;-80
2022/08/17 08:15:41;;;;;;;4.20;3.90;;;;;;;;;;5043989;28;20313;-80
2022/08/17 08:18:24;;;;;;;3.70;3.45;;;;;;;;;;5043352;28;20194;-80
2022/08/17 08:20:59;;;;;;;2.92;2.72;;;;;;;;;;5043436;28;20222;-79
2022/08/17 08:23:39;;;;;;;4.15;3.38;;;;;;;;;;5043336;28;20208;-80
2022/08/17 08:26:20;;;;;;;4.05;3.70;;;;;;;;;;5043274;28;20635;-80
2022/08/17 08:28:57;;;;;;;3.22;3.03;;;;;;;;;;5043286;28;20186;-80
2022/08/17 08:31:36;;;;;;;3.20;3.00;;;;;;;;;;5043037;28;20297;-80
2022/08/17 08:34:12;;;;;;;3.58;3.38;;;;;;;;;;5043155;28;20206;-79
2022/08/17 08:36:55;;;;;;;3.70;3.40;;;;;;;;;;5041579;28;20246;-79
2022/08/17 08:39:29;;;;;;;3.60;3.33;;;;;;;;;;5043618;28;20190;-80
2022/08/17 08:42:06;;;;;;;3.35;3.15;;;;;;;;;;5042718;28;20659;-80
2022/08/17 08:44:41;;;;;;;3.13;2.92;;;;;;;;;;5042118;28;20186;-80
2022/08/17 08:47:17;;;;;;;2.70;2.50;;;;;;;;;;5042852;28;20225;-80
2022/08/17 08:50:09;;;;;;;3.55;3.25;;;;;;;;;;5041952;28;20190;-79
2022/08/17 08:52:56;;;;;;;3.22;3.03;;;;;;;;;;5040861;28;20206;-81
2022/08/17 08:55:33;;;;;;;2.95;2.67;;;;;;;;;;5040882;28;20257;-80
2022/08/17 08:58:05;;;;;;;2.90;2.70;;;;;;;;;;5041285;28;20210;-81
2022/08/17 09:00:35;;;;;;;2.67;2.47;;;;;;;;;;5041589;28;20643;-81
2022/08/17 09:03:41;;;;;;;2.63;2.53;;;;;;;;;;5040465;28;20205;-80
2022/08/17 09:06:31;;;;;;;2.70;2.50;;;;;;;;;;5038354;28;20260;-80
2022/08/17 09:09:16;;;;;;;2.22;2.13;;;;;;;;;;5039337;28;20215;-81
2022/08/17 09:11:51;;;;;;;2.75;2.55;;;;;;;;;;5041587;28;20189;-80
2022/08/17 09:14:24;;;;;;;3.40;3.20;;;;;;;;;;5040544;28;20192;-79
2022/08/17 09:17:00;;;;;;;3.15;2.95;;;;;;;;;;5040353;28;20631;-80
2022/08/17 09:19:34;;;;;;;3.10;2.90;;;;;;;;;;5056804;28;20229;-80
2022/08/17 09:22:09;;;;;;;1.90;1.80;;;;;;;;;;5059553;28;20304;-80
2022/08/17 09:24:45;;;;;;;2.00;1.90;;;;;;;;;;5058495;28;20189;-80
2022/08/17 09:27:17;;;;;;;2.45;2.35;;;;;;;;;;5056195;28;20225;-80
2022/08/17 09:29:49;;;;;;;3.30;2.15;;;;;;;;;;5056489;28;20190;-80
2022/08/17 09:32:22;;;;;;;2.38;2.28;;;;;;;;;;5056701;28;20216;-81
2022/08/17 09:34:53;;;;;;;2.30;2.10;;;;;;;;;;5060441;28;20364;-80
2022/08/17 09:37:25;;;;;;;2.25;2.15;;;;;;;;;;5060667;28;20224;-81
2022/08/17 09:40:06;;;;;;;3.00;2.30;;;;;;;;;;5060443;28;20189;-80
2022/08/17 09:42:43;;;;;;;3.10;2.90;;;;;;;;;;5060354;28;20189;-80
2022/08/17 09:45:28;;;;;;;2.67;2.47;;;;;;;;;;5061128;28;20754;-81
2022/08/17 09:48:01;;;;;;;2.95;2.75;;;;;;;;;;5060707;28;20300;-81
2022/08/17 09:50:35;;;;;;;2.55;2.42;;;;;;;;;;5060998;28;20277;-80
2022/08/17 09:53:02;;;;;;;1.90;1.80;;;;;;;;;;5060466;28;20822;-80
2022/08/17 09:55:54;;;;;;;3.13;2.92;;;;;;;;;;5060899;28;20646;-81
2022/08/17 09:58:29;;;;;;;2.75;2.55;;;;;;;;;;5060836;28;20283;-82
2022/08/17 10:01:03;;;;;;;2.67;2.47;;;;;;;;;;5060786;28;20819;-81
2022/08/17 10:03:52;;;;;;;2.20;2.10;;;;;;;;;;5060117;28;20620;-80
2022/08/17 10:06:27;;;;;;;2.60;2.17;;;;;;;;;;5060224;28;20221;-81
2022/08/17 10:09:06;;;;;;;2.05;1.95;;;;;;;;;;5060558;28;20224;-81
2022/08/17 10:14:31;;;;;;;1.80;1.70;;;;;;;;;;5060085;28;20264;-82
2022/08/17 10:17:06;;;;;;;1.77;1.67;;;;;;;;;;5060186;28;20931;-82
2022/08/17 10:19:38;;;;;;;2.22;1.70;;;;;;;;;;5059583;28;20191;-82
2022/08/17 10:27:50;;;;;;;2.22;2.10;;;;;;;;;;5059758;28;20188;-82
2022/08/17 10:30:21;;;;;;;3.05;2.60;;;;;;;;;;5059311;28;20196;-82
2022/08/17 10:32:54;;;;;;;2.97;2.72;;;;;;;;;;5059287;28;20229;-81
2022/08/17 10:35:41;;;;;;;2.17;2.08;;;;;;;;;;5059213;28;20229;-82
2022/08/17 10:38:35;;;;;;;2.25;2.15;;;;;;;;;;5057558;28;20237;-81
2022/08/17 10:41:16;;;;;;;2.55;2.35;;;;;;;;;;5056858;28;20247;-82
2022/08/17 10:43:56;;;;;;;2.28;2.10;;;;;;;;;;5055166;28;20192;-81
2022/08/17 10:46:29;;;;;;;2.38;2.28;;;;;;;;;;5056434;28;20268;-82
2022/08/17 10:49:32;;;;;;;2.33;2.20;;;;;;;;;;5059016;28;20213;-81
2022/08/17 10:52:03;;;;;;;2.90;2.70;;;;;;;;;;5055917;28;20185;-80
2022/08/17 10:54:55;;;;;;;2.28;2.17;;;;;;;;;;5060336;28;20205;-82
2022/08/17 10:57:53;;;;;;;2.30;2.20;;;;;;;;;;5045571;28;20698;-81
2022/08/17 11:01:11;;;;;;;2.08;1.95;;;;;;;;;;5026589;28;20307;-82
2022/08/17 11:03:53;;;;;;;1.80;1.70;;;;;;;;;;5024296;28;20212;-83
2022/08/17 11:06:29;;;;;;;1.83;1.70;;;;;;;;;;5060254;28;20220;-82
2022/08/17 11:09:23;;;;;;;1.67;1.58;;;;;;;;;;5059494;28;20634;-82
2022/08/17 11:12:15;;;;;;;1.70;1.60;;;;;;;;;;5059395;28;20624;-81
2022/08/17 11:15:15;;;;;;;1.98;1.88;;;;;;;;;;5058678;28;20204;-81
2022/08/17 11:18:34;;;;;;;1.90;1.80;;;;;;;;;;5059275;28;20224;-81
2022/08/17 11:21:43;;;;;;;1.80;1.70;;;;;;;;;;5025892;28;20269;-81
2022/08/17 11:24:18;;;;;;;1.60;1.50;;;;;;;;;;5059177;28;20227;-82
2022/08/17 11:27:01;;;;;;;1.90;1.80;;;;;;;;;;5058783;28;20308;-83
2022/08/17 11:29:36;;;;;;;2.33;2.22;;;;;;;;;;5061126;28;20276;-82
2022/08/17 11:32:10;;;;;;;2.28;2.17;;;;;;;;;;5066620;28;20185;-82
2022/08/17 11:34:40;;;;;;;2.13;1.92;;;;;;;;;;5064439;28;20197;-82
2022/08/17 11:37:36;;;;;;;2.38;2.28;;;;;;;;;;5062622;28;20588;-82
2022/08/17 11:40:28;;;;;;;2.20;2.00;;;;;;;;;;5057881;28;20227;-82
2022/08/17 11:43:26;;;;;;;2.15;2.05;;;;;;;;;;5062996;28;20213;-81
2022/08/17 11:46:17;;;;;;;2.20;2.10;;;;;;;;;;5058828;28;20221;-81
2022/08/17 11:52:34;;;;;;;2.40;2.30;;;;;;;;;;5047736;28;20200;-81
2022/08/17 11:55:02;;;;;;;1.92;1.83;;;;;;;;;;5058364;28;20247;-83
2022/08/17 11:58:00;;;;;;;2.90;2.05;;;;;;;;;;5061163;28;20247;-82
2022/08/17 12:00:56;;;;;;;2.22;2.13;;;;;;;;;;5062458;28;20216;-81
2022/08/17 12:03:47;;;;;;;2.03;1.92;;;;;;;;;;5062705;28;20209;-81
2022/08/17 12:06:45;;;;;;;1.88;1.77;;;;;;;;;;5061777;28;20222;-81
2022/08/17 12:09:20;;;;;;;2.35;2.25;;;;;;;;;;5061684;28;20312;-82
2022/08/17 12:11:53;;;;;;;2.13;2.03;;;;;;;;;;5062592;28;20224;-82
2022/08/17 12:14:26;;;;;;;1.83;1.73;;;;;;;;;;5061800;28;20210;-82
2022/08/17 12:17:08;;;;;;;2.00;1.90;;;;;;;;;;5062314;28;20226;-81
2022/08/17 12:19:36;;;;;;;2.05;1.95;;;;;;;;;;5062208;28;20200;-81
2022/08/17 12:22:11;;;;;;;3.08;2.28;;;;;;;;;;5061286;28;20248;-81
2022/08/17 12:24:49;;;;;;;2.10;2.00;;;;;;;;;;5053611;22;20317;-82
2022/08/17 12:27:24;;;;;;;2.22;2.10;;;;;;;;;;5036368;28;20292;-84
2022/08/17 12:29:52;;;;;;;2.50;2.30;;;;;;;;;;5037348;28;20225;-84
2022/08/17 12:32:21;;;;;;;2.83;2.22;;;;;;;;;;5036188;28;20263;-82
2022/08/17 12:34:50;;;;;;;2.25;2.15;;;;;;;;;;5036179;28;20206;-84
2022/08/17 12:37:21;;;;;;;2.05;1.77;;;;;;;;;;5060688;22;20243;-83
2022/08/17 12:39:56;;;;;;;2.03;1.83;;;;;;;;;;5059465;28;20288;-82
2022/08/17 12:42:33;;;;;;;2.15;2.05;;;;;;;;;;5058368;28;20284;-83
2022/08/17 12:45:01;;;;;;;2.20;2.10;;;;;;;;;;5050684;28;20732;-82
2022/08/17 12:47:30;;;;;;;1.90;1.80;;;;;;;;;;5035457;28;20312;-83
2022/08/17 12:50:08;;;;;;;1.73;1.63;;;;;;;;;;5035658;28;20222;-83
2022/08/17 12:52:40;;;;;;;2.22;2.00;;;;;;;;;;5035889;28;20289;-83
2022/08/17 12:55:21;;;;;;;2.10;2.00;;;;;;;;;;5039062;28;20206;-83
2022/08/17 12:57:52;;;;;;;1.80;1.70;;;;;;;;;;5036137;28;20218;-83
2022/08/17 13:00:26;;;;;;;1.80;1.70;;;;;;;;;;5035693;28;20202;-81
2022/08/17 13:02:58;;;;;;;2.33;1.80;;;;;;;;;;5038521;28;20294;-83
2022/08/17 13:05:29;;;;;;;3.00;2.80;;;;;;;;;;5035886;28;20293;-83
2022/08/17 13:08:00;;;;;;;2.80;2.03;;;;;;;;;;5035955;28;20226;-82
2022/08/17 13:10:32;;;;;;;2.30;2.20;;;;;;;;;;5037278;28;20425;-83
2022/08/17 13:13:03;;;;;;;2.53;2.42;;;;;;;;;;5037524;28;20289;-82
2022/08/17 13:15:37;;;;;;;2.55;2.15;;;;;;;;;;5033523;28;20200;-80
2022/08/17 13:18:10;;;;;;;2.08;1.98;;;;;;;;;;5034004;28;20226;-82
2022/08/17 13:20:38;;;;;;;1.60;1.50;;;;;;;;;;5037205;28;20294;-81
2022/08/17 13:23:07;;;;;;;2.08;1.90;;;;;;;;;;5035681;28;20674;-81
2022/08/17 13:25:36;;;;;;;2.22;2.10;;;;;;;;;;5038626;28;20209;-83
2022/08/17 13:28:04;;;;;;;1.80;1.70;;;;;;;;;;5036169;28;20250;-82
2022/08/17 13:30:32;;;;;;;2.10;2.00;;;;;;;;;;5014504;28;20711;-81
2022/08/17 13:33:03;;;;;;;2.10;2.00;;;;;;;;;;5016137;28;20632;-83
2022/08/17 13:35:47;;;;;;;2.13;2.03;;;;;;;;;;5015462;28;20671;-83
2022/08/17 13:38:32;;;;;;;2.10;2.00;;;;;;;;;;5017047;28;20265;-83
2022/08/17 13:41:02;;;;;;;2.30;2.20;;;;;;;;;;5016388;28;20253;-82
2022/08/17 13:43:49;;;;;;;2.08;1.98;;;;;;;;;;5015436;28;20586;-82
2022/08/17 13:46:23;;;;;;;3.75;1.88;;;;;;;;;;5035210;28;20198;-83
2022/08/17 13:49:00;;;;;;;1.92;1.83;;;;;;;;;;5035864;28;20229;-83
2022/08/17 13:51:41;;;;;;;2.65;2.55;;;;;;;;;;5028607;28;20698;-82
2022/08/17 13:54:28;;;;;;;2.80;2.63;;;;;;;;;;5035562;28;20206;-82
2022/08/17 13:57:01;;;;;;;2.25;2.15;;;;;;;;;;5034436;28;20633;-83
2022/08/17 13:59:39;;;;;;;2.08;1.98;;;;;;;;;;5034608;28;20288;-82
2022/08/17 14:02:08;;;;;;;2.00;1.90;;;;;;;;;;5036172;28;20248;-83
2022/08/17 14:04:38;;;;;;;2.05;1.95;;;;;;;;;;5034314;28;20285;-82
2022/08/17 14:07:28;;;;;;;2.00;1.85;;;;;;;;;;5034893;28;20309;-83
2022/08/17 14:10:03;;;;;;;2.20;2.00;;;;;;;;;;5035087;28;20248;-82
2022/08/17 14:12:35;;;;;;;2.50;2.30;;;;;;;;;;5034926;28;20288;-82
2022/08/17 14:15:03;;;;;;;2.45;2.35;;;;;;;;;;5035250;28;20234;-83
2022/08/17 14:17:31;;;;;;;2.03;1.92;;;;;;;;;;5034366;28;20313;-83
2022/08/17 14:19:59;;;;;;;2.00;1.90;;;;;;;;;;5034865;28;20289;-83
2022/08/17 14:22:30;;;;;;;3.30;3.05;;;;;;;;;;5035695;28;20198;-83
2022/08/17 14:25:00;;;;;;;2.38;2.28;;;;;;;;;;5035526;28;20728;-83
2022/08/17 14:27:30;;;;;;;2.20;2.10;;;;;;;;;;5034312;28;20764;-83
2022/08/17 14:29:59;;;;;;;2.45;2.35;;;;;;;;;;5034873;28;20553;-84
2022/08/17 14:32:31;;;;;;;2.83;2.63;;;;;;;;;;5036578;28;20225;-83
2022/08/17 14:35:01;;;;;;;2.25;2.13;;;;;;;;;;5035146;28;20197;-83
2022/08/17 14:37:30;;;;;;;3.50;2.10;;;;;;;;;;5033933;28;20226;-83
2022/08/17 14:40:00;;;;;;;2.50;2.30;;;;;;;;;;5034347;28;20225;-83
2022/08/17 14:42:32;;;;;;;2.58;2.38;;;;;;;;;;5034918;28;20199;-83
2022/08/17 14:45:04;;;;;;;2.17;2.08;;;;;;;;;;5033702;28;20702;-81
2022/08/17 14:47:32;;;;;;;1.80;1.70;;;;;;;;;;5033845;28;20229;-82
2022/08/17 14:50:00;;;;;;;2.00;1.90;;;;;;;;;;5035591;28;20270;-82
2022/08/17 14:52:29;;;;;;;2.58;2.42;;;;;;;;;;5035984;28;20202;-83
2022/08/17 14:54:56;;;;;;;2.55;2.38;;;;;;;;;;5033344;28;20293;-82
2022/08/17 14:57:27;;;;;;;2.20;2.10;;;;;;;;;;5033610;28;20720;-80
2022/08/17 14:59:56;;;;;;;2.40;2.20;;;;;;;;;;5034571;28;20288;-82
2022/08/17 15:02:27;;;;;;;2.70;2.60;;;;;;;;;;5034878;28;20198;-81
2022/08/17 15:04:57;;;;;;;1.92;1.83;;;;;;;;;;5033120;28;20202;-82
2022/08/17 15:07:25;;;;;;;2.60;2.40;;;;;;;;;;5033647;28;20305;-81
2022/08/17 15:09:52;;;;;;;2.30;2.10;;;;;;;;;;5033895;28;20674;-82
2022/08/17 15:12:23;;;;;;;2.67;2.40;;;;;;;;;;5033072;28;20309;-81
2022/08/17 15:14:51;;;;;;;2.97;2.78;;;;;;;;;;5033322;28;20553;-80
2022/08/17 15:17:18;;;;;;;2.13;2.03;;;;;;;;;;5034329;28;20308;-81
2022/08/17 15:19:47;;;;;;;2.75;2.55;;;;;;;;;;5033705;28;20281;-81
2022/08/17 15:22:20;;;;;;;3.10;2.80;;;;;;;;;;5033485;28;20198;-81
2022/08/17 15:24:48;;;;;;;2.20;2.00;;;;;;;;;;5032296;28;20198;-81
2022/08/17 15:27:15;;;;;;;2.50;2.40;;;;;;;;;;5033020;28;20229;-81
2022/08/17 15:29:43;;;;;;;2.42;2.28;;;;;;;;;;5033195;28;20244;-82
2022/08/17 15:32:10;;;;;;;2.15;2.05;;;;;;;;;;5032250;28;20226;-81
2022/08/17 15:34:38;;;;;;;2.50;2.30;;;;;;;;;;5032541;28;20301;-81
2022/08/17 15:37:07;;;;;;;2.80;2.60;;;;;;;;;;5032331;28;20212;-82
2022/08/17 15:39:34;;;;;;;2.35;2.20;;;;;;;;;;5032281;28;20205;-81
2022/08/17 15:42:03;;;;;;;2.25;2.15;;;;;;;;;;5032840;28;20296;-83
2022/08/17 15:44:31;;;;;;;2.72;2.53;;;;;;;;;;5032815;28;20282;-80
2022/08/17 15:46:58;;;;;;;2.60;2.50;;;;;;;;;;5032355;28;20198;-80
2022/08/17 15:49:26;;;;;;;2.10;2.00;;;;;;;;;;5032795;28;20238;-81
2022/08/17 15:51:54;;;;;;;2.50;2.30;;;;;;;;;;5033032;28;20280;-80
2022/08/17 15:54:23;;;;;;;2.22;2.05;;;;;;;;;;5033507;28;20202;-82